Thornton, CO (80229)

9:13 PM MDT on September 02, 2015 (GMT -0600)
Downing Park | | Change Station
CLOSE
Current Station
Personal Weather Station
Location: Thornton, CO
Elevation: 5328 ft
Nearby Weather Stations

Elev 5328 ft 39.87 °N, 104.97 °W | Updated 3 minutes ago

Partly Cloudy
Partly Cloudy
73.2 °F
Feels Like 77 °F
N
0.0
Wind Variable Wind from West

Today
High -- | Low -- °F
--% Chance of Precip.
Yesterday
High -- | Low -- °F
Precip. -- in
6:28 AM 7:29 PM
Waning Gibbous, 74% visible
Pressure 30.05 in
Visibility 30.0 miles
Clouds Scattered Clouds 10000 ft
Mostly Cloudy 20000 ft
Heat Index 77 °F
Dew Point 46 °F
Humidity 38%
Rainfall 0.00 in
Snow Depth Not available.
UV 0 out of 12
Pollen 10.50 out of 12
Air Quality Not available.
Flu Activity Not available.
METAR KBJC 030245Z 26008KT 30SM SCT100 BKN200 22/05 A3005
Pressure 30.05 in
Visibility 30.0 miles
Clouds Scattered Clouds 10000 ft
Mostly Cloudy 20000 ft
Heat Index 77 °F
Dew Point 46 °F
Humidity 38%
Rainfall 0.00 in
Snow Depth Not available.
UV 0 out of 12
Pollen 10.50 out of 12
Air Quality Not available.
Flu Activity Not available.
METAR KBJC 030245Z 26008KT 30SM SCT100 BKN200 22/05 A3005

10-Day Weather Forecast

×

Almanac

Astronomy

Sep. 02, 2015 Rise Set
Actual Time
Civil Twilight
Nautical Twilight
Astronomical Twilight
Moon
Length of Visible Light
Length of Day
Tomorrow will be .
, % of the Moon is Illuminated

Today's Extremes

State Highs State Lows

Community

WunderPhotos

Upload Photos

1,851,892 photos uploaded!

WunderBlogs® & News

Nearby

Air Quality

  Air Quality AQ Index Pollutant
Not available.

Snow Depth

Station Depth Elevation

Earthquake Activity

City Distance Mag. Time & Date
Minimum magnitude displayed is 2.5.

Coastal Water Temperatures

Place Temperature

Stations

Nearby Weather Stations

Station Location Temp. Windchill Dew Point Humidity Wind Precip. Elev Updated Type